Time;durP1;ratioP1;P1;durP2;ratioP2;P2;SDS_P1;SDS_P2;PMS_P1;PMS_P2;Temp;Humidity;BMP_temperature;BMP_pressure;BME280_temperature;BME280_humidity;BME280_pressure;Samples;Min_cycle;Max_cycle;Signal;HPM_P1;HPM_P2
2021/04/25 00:00:17;;;;;;;7.72;3.75;;;;;;;;;;5132267;27;20074;-70
2021/04/25 00:02:44;;;;;;;8.30;3.03;;;;;;;;;;5115755;27;20091;-70
2021/04/25 00:05:13;;;;;;;5.15;3.13;;;;;;;;;;5110491;27;20051;-70
2021/04/25 00:07:39;;;;;;;7.25;3.67;;;;;;;;;;5123279;27;20112;-70
2021/04/25 00:10:07;;;;;;;8.18;3.17;;;;;;;;;;5130616;27;20083;-70
2021/04/25 00:12:33;;;;;;;7.93;3.50;;;;;;;;;;5117541;27;20146;-70
2021/04/25 00:14:59;;;;;;;8.20;3.70;;;;;;;;;;5128708;27;20043;-69
2021/04/25 00:17:25;;;;;;;12.63;3.88;;;;;;;;;;5125298;27;20070;-70
2021/04/25 00:19:51;;;;;;;6.43;3.28;;;;;;;;;;5115828;27;20507;-70
2021/04/25 00:22:18;;;;;;;9.35;3.80;;;;;;;;;;5120296;27;20044;-70
2021/04/25 00:24:44;;;;;;;7.75;3.80;;;;;;;;;;5119754;27;20166;-70
2021/04/25 00:27:10;;;;;;;7.47;3.95;;;;;;;;;;5126158;27;20043;-70
2021/04/25 00:29:36;;;;;;;6.68;3.60;;;;;;;;;;5123929;27;20086;-70
2021/04/25 00:32:02;;;;;;;5.13;3.22;;;;;;;;;;5108911;28;20059;-70
2021/04/25 00:34:28;;;;;;;7.65;3.85;;;;;;;;;;5114595;28;20412;-69
2021/04/25 00:36:54;;;;;;;7.25;3.67;;;;;;;;;;5114587;28;20083;-69
2021/04/25 00:39:21;;;;;;;6.75;3.50;;;;;;;;;;5114486;28;20066;-70
2021/04/25 00:41:47;;;;;;;9.02;4.05;;;;;;;;;;5113803;28;20051;-70
2021/04/25 00:44:13;;;;;;;7.43;3.97;;;;;;;;;;5114726;28;20476;-70
2021/04/25 00:46:41;;;;;;;6.63;4.00;;;;;;;;;;5114414;28;20459;-70
2021/04/25 00:49:07;;;;;;;6.10;3.60;;;;;;;;;;5114442;28;20048;-70
2021/04/25 00:51:33;;;;;;;7.43;3.72;;;;;;;;;;5108309;28;20059;-70
2021/04/25 00:53:59;;;;;;;9.48;4.40;;;;;;;;;;5094028;28;20511;-70
2021/04/25 00:56:26;;;;;;;8.60;4.00;;;;;;;;;;5093599;28;20059;-69
2021/04/25 00:58:52;;;;;;;7.38;4.03;;;;;;;;;;5093806;28;20052;-69
2021/04/25 01:01:18;;;;;;;8.63;4.25;;;;;;;;;;5100307;28;20093;-70
2021/04/25 01:03:45;;;;;;;9.30;3.90;;;;;;;;;;5094180;28;20088;-70
2021/04/25 01:06:11;;;;;;;8.43;3.88;;;;;;;;;;5093170;28;20040;-70
2021/04/25 01:08:37;;;;;;;7.30;3.88;;;;;;;;;;5093729;28;20097;-70
2021/04/25 01:11:03;;;;;;;9.95;4.13;;;;;;;;;;5094178;28;20055;-70
2021/04/25 01:13:30;;;;;;;7.00;3.97;;;;;;;;;;5098290;28;20043;-70
2021/04/25 01:15:56;;;;;;;6.97;4.25;;;;;;;;;;5113762;28;20058;-70
2021/04/25 01:18:23;;;;;;;6.85;4.55;;;;;;;;;;5113469;28;20130;-70
2021/04/25 01:20:49;;;;;;;6.25;3.80;;;;;;;;;;5112367;28;20538;-70
2021/04/25 01:23:15;;;;;;;8.57;4.65;;;;;;;;;;5113402;28;20499;-70
2021/04/25 01:25:41;;;;;;;8.63;4.05;;;;;;;;;;5113749;28;20056;-70
2021/04/25 01:28:07;;;;;;;11.30;5.43;;;;;;;;;;5113592;28;20052;-69
2021/04/25 01:30:33;;;;;;;11.98;6.25;;;;;;;;;;5111948;28;20487;-70
2021/04/25 01:33:00;;;;;;;9.30;5.35;;;;;;;;;;5111998;28;20448;-69
2021/04/25 01:35:27;;;;;;;11.93;5.22;;;;;;;;;;5113271;28;20052;-70
2021/04/25 01:37:54;;;;;;;9.00;5.00;;;;;;;;;;5113449;28;20055;-70
2021/04/25 01:40:22;;;;;;;9.60;4.47;;;;;;;;;;5112789;28;20050;-70
2021/04/25 01:42:48;;;;;;;6.05;3.85;;;;;;;;;;5097637;28;20044;-70
2021/04/25 01:45:16;;;;;;;8.68;4.65;;;;;;;;;;5098713;28;20563;-69
2021/04/25 01:47:46;;;;;;;10.25;5.07;;;;;;;;;;5112900;28;20407;-69
2021/04/25 01:50:12;;;;;;;9.02;5.25;;;;;;;;;;5112310;28;20547;-70
2021/04/25 01:52:38;;;;;;;8.32;4.43;;;;;;;;;;5112502;28;20055;-70
2021/04/25 01:55:05;;;;;;;8.98;4.70;;;;;;;;;;5113009;28;20047;-70
2021/04/25 01:57:32;;;;;;;8.65;4.65;;;;;;;;;;5113110;28;20051;-69
2021/04/25 01:59:58;;;;;;;7.95;5.38;;;;;;;;;;5112424;28;20052;-69
2021/04/25 02:02:24;;;;;;;9.45;4.55;;;;;;;;;;5111750;28;20484;-69
2021/04/25 02:04:50;;;;;;;8.10;4.88;;;;;;;;;;5112847;28;20056;-69
2021/04/25 02:07:15;;;;;;;9.93;4.88;;;;;;;;;;5112631;28;20058;-69
2021/04/25 02:09:41;;;;;;;9.27;5.32;;;;;;;;;;5112954;28;20403;-69
2021/04/25 02:12:08;;;;;;;8.40;4.95;;;;;;;;;;5112198;28;20141;-70
2021/04/25 02:14:35;;;;;;;8.88;4.57;;;;;;;;;;5112320;28;20055;-69
2021/04/25 02:17:01;;;;;;;7.57;4.40;;;;;;;;;;5112759;28;20051;-69
2021/04/25 02:19:27;;;;;;;10.02;5.40;;;;;;;;;;5112720;28;20090;-69
2021/04/25 02:21:53;;;;;;;7.57;4.22;;;;;;;;;;5112381;28;20524;-69
2021/04/25 02:24:19;;;;;;;9.52;5.18;;;;;;;;;;5112437;28;20059;-70
2021/04/25 02:26:45;;;;;;;8.30;5.07;;;;;;;;;;5112247;28;20043;-69
2021/04/25 02:29:11;;;;;;;10.18;5.03;;;;;;;;;;5112481;28;20500;-69
2021/04/25 02:31:37;;;;;;;10.80;5.40;;;;;;;;;;5111230;28;20091;-70
2021/04/25 02:34:04;;;;;;;15.48;6.68;;;;;;;;;;5111200;28;20071;-70
2021/04/25 02:36:30;;;;;;;18.15;7.95;;;;;;;;;;5112196;28;20048;-69
2021/04/25 02:38:56;;;;;;;10.95;6.43;;;;;;;;;;5096500;28;20048;-69
2021/04/25 02:41:22;;;;;;;12.18;6.18;;;;;;;;;;5112772;28;20059;-69
2021/04/25 02:43:48;;;;;;;12.05;6.25;;;;;;;;;;5112073;28;20077;-69
2021/04/25 02:46:14;;;;;;;20.13;6.78;;;;;;;;;;5112180;28;20400;-69
2021/04/25 02:48:41;;;;;;;8.10;4.70;;;;;;;;;;5112471;28;20047;-69
2021/04/25 02:51:06;;;;;;;10.13;5.40;;;;;;;;;;5112455;28;20378;-69
2021/04/25 02:53:33;;;;;;;10.57;4.93;;;;;;;;;;5111886;28;20063;-69
2021/04/25 02:55:59;;;;;;;9.32;5.63;;;;;;;;;;5112433;28;20048;-69
2021/04/25 02:58:25;;;;;;;9.55;5.32;;;;;;;;;;5112508;28;20495;-69
2021/04/25 03:00:51;;;;;;;14.80;7.68;;;;;;;;;;5112502;28;20442;-69
2021/04/25 03:03:17;;;;;;;14.20;6.47;;;;;;;;;;5115871;28;20055;-69
2021/04/25 03:05:44;;;;;;;11.30;5.72;;;;;;;;;;5115880;28;20059;-69
2021/04/25 03:08:10;;;;;;;8.05;4.72;;;;;;;;;;5116334;28;20053;-70
2021/04/25 03:10:36;;;;;;;8.35;5.00;;;;;;;;;;5112030;28;20055;-70
2021/04/25 03:13:01;;;;;;;9.07;6.07;;;;;;;;;;5107337;28;20143;-70
2021/04/25 03:15:27;;;;;;;7.03;4.40;;;;;;;;;;5116046;28;20059;-69
2021/04/25 03:17:53;;;;;;;8.93;4.53;;;;;;;;;;5115749;28;20047;-69
2021/04/25 03:20:22;;;;;;;7.32;4.50;;;;;;;;;;5115336;28;20052;-69
2021/04/25 03:22:49;;;;;;;9.02;5.32;;;;;;;;;;5109530;28;20052;-69
2021/04/25 03:25:15;;;;;;;9.43;5.18;;;;;;;;;;5099888;28;20051;-70
2021/04/25 03:27:41;;;;;;;9.48;5.20;;;;;;;;;;5115651;28;20036;-70
2021/04/25 03:30:10;;;;;;;7.63;4.20;;;;;;;;;;5115399;28;20044;-70
2021/04/25 03:32:36;;;;;;;11.15;5.30;;;;;;;;;;5115543;28;20044;-70
2021/04/25 03:35:03;;;;;;;6.75;4.10;;;;;;;;;;5111798;28;20395;-70
2021/04/25 03:37:29;;;;;;;6.55;3.83;;;;;;;;;;5115323;28;20525;-70
2021/04/25 03:39:56;;;;;;;11.13;5.10;;;;;;;;;;5115725;28;20048;-70
2021/04/25 03:42:22;;;;;;;7.97;4.78;;;;;;;;;;5114595;28;20399;-69
2021/04/25 03:44:48;;;;;;;12.57;5.93;;;;;;;;;;5115749;28;20051;-70
2021/04/25 03:47:14;;;;;;;10.38;5.75;;;;;;;;;;5115333;28;20407;-69
2021/04/25 03:49:40;;;;;;;10.77;5.45;;;;;;;;;;5115585;28;20087;-69
2021/04/25 03:52:07;;;;;;;7.15;4.32;;;;;;;;;;5114443;28;20494;-70
2021/04/25 03:54:33;;;;;;;7.97;4.60;;;;;;;;;;5115526;28;20056;-69
2021/04/25 03:57:00;;;;;;;10.75;5.03;;;;;;;;;;5114468;28;20052;-70
2021/04/25 03:59:26;;;;;;;8.38;5.15;;;;;;;;;;5115239;28;20048;-69
2021/04/25 04:01:52;;;;;;;10.55;5.28;;;;;;;;;;5114274;28;20047;-69
2021/04/25 04:04:18;;;;;;;9.05;4.40;;;;;;;;;;5115027;28;20044;-69
2021/04/25 04:06:44;;;;;;;10.18;4.75;;;;;;;;;;5115097;28;20050;-69
2021/04/25 04:09:10;;;;;;;10.77;5.43;;;;;;;;;;5115062;28;20055;-69
2021/04/25 04:11:36;;;;;;;9.90;5.50;;;;;;;;;;5113516;28;20071;-69
2021/04/25 04:14:03;;;;;;;10.43;5.55;;;;;;;;;;5114942;28;20544;-69
2021/04/25 04:16:29;;;;;;;12.48;5.63;;;;;;;;;;5114006;28;20392;-70
2021/04/25 04:18:55;;;;;;;6.95;4.47;;;;;;;;;;5114843;28;20055;-69
2021/04/25 04:21:21;;;;;;;13.73;5.68;;;;;;;;;;5114166;28;20047;-68
2021/04/25 04:23:47;;;;;;;11.15;5.57;;;;;;;;;;5102327;28;20093;-69
2021/04/25 04:26:13;;;;;;;9.63;5.35;;;;;;;;;;5106217;28;20062;-69
2021/04/25 04:28:39;;;;;;;16.67;5.65;;;;;;;;;;5114676;28;20159;-70
2021/04/25 04:31:06;;;;;;;9.93;4.78;;;;;;;;;;5113681;28;20491;-69
2021/04/25 04:33:32;;;;;;;9.75;4.57;;;;;;;;;;5114337;28;20109;-69
2021/04/25 04:35:58;;;;;;;11.82;6.45;;;;;;;;;;5112892;28;20079;-70
2021/04/25 04:38:24;;;;;;;10.73;6.07;;;;;;;;;;5114562;28;20057;-69
2021/04/25 04:40:50;;;;;;;10.35;5.13;;;;;;;;;;5113088;28;20056;-70
2021/04/25 04:43:16;;;;;;;8.93;5.10;;;;;;;;;;5113985;28;20050;-69
2021/04/25 04:45:42;;;;;;;13.00;6.20;;;;;;;;;;5113943;28;20180;-69
2021/04/25 04:48:09;;;;;;;14.32;6.25;;;;;;;;;;5114046;28;20055;-69
2021/04/25 04:50:35;;;;;;;8.77;5.43;;;;;;;;;;5113837;28;20396;-69
2021/04/25 04:53:01;;;;;;;16.33;7.25;;;;;;;;;;5113811;28;20059;-69
2021/04/25 04:55:27;;;;;;;11.55;6.10;;;;;;;;;;5113919;28;20071;-70
2021/04/25 04:57:53;;;;;;;17.40;9.48;;;;;;;;;;5113880;28;20146;-70
2021/04/25 05:00:19;;;;;;;14.50;6.35;;;;;;;;;;5113907;28;20475;-70
2021/04/25 05:02:45;;;;;;;16.48;8.50;;;;;;;;;;5112983;28;20044;-70
2021/04/25 05:05:12;;;;;;;12.63;6.13;;;;;;;;;;5114105;28;20116;-70
2021/04/25 05:07:38;;;;;;;11.43;5.78;;;;;;;;;;5114067;28;20059;-70
2021/04/25 05:10:06;;;;;;;14.48;6.45;;;;;;;;;;5114022;28;20052;-69
2021/04/25 05:12:32;;;;;;;10.85;6.97;;;;;;;;;;5112677;28;20039;-70
2021/04/25 05:14:58;;;;;;;10.75;6.25;;;;;;;;;;5113588;28;20491;-70
2021/04/25 05:17:24;;;;;;;8.25;5.35;;;;;;;;;;5113763;28;20050;-70
2021/04/25 05:19:50;;;;;;;8.93;5.57;;;;;;;;;;5113564;28;20408;-69
2021/04/25 05:22:17;;;;;;;8.57;5.47;;;;;;;;;;5100723;28;20086;-69
2021/04/25 05:24:43;;;;;;;11.95;5.78;;;;;;;;;;5109446;28;20048;-69
2021/04/25 05:27:09;;;;;;;11.52;5.93;;;;;;;;;;5112975;28;20048;-69
2021/04/25 05:29:35;;;;;;;11.65;5.22;;;;;;;;;;5113426;28;20460;-69
2021/04/25 05:32:01;;;;;;;10.63;6.47;;;;;;;;;;5112254;28;20091;-69
2021/04/25 05:34:27;;;;;;;12.52;5.65;;;;;;;;;;5112983;28;20052;-69
2021/04/25 05:36:53;;;;;;;10.57;6.05;;;;;;;;;;5111948;28;20051;-69
2021/04/25 05:39:20;;;;;;;12.15;6.25;;;;;;;;;;5113000;28;20047;-69
2021/04/25 05:41:46;;;;;;;10.63;5.75;;;;;;;;;;5112369;28;20043;-69
2021/04/25 05:44:12;;;;;;;10.88;6.75;;;;;;;;;;5113558;28;20057;-69
2021/04/25 05:46:38;;;;;;;15.23;9.52;;;;;;;;;;5112886;28;20051;-69
2021/04/25 05:49:04;;;;;;;11.75;6.28;;;;;;;;;;5113269;28;20055;-69
2021/04/25 05:51:30;;;;;;;10.50;6.47;;;;;;;;;;5112048;28;20044;-69
2021/04/25 05:53:56;;;;;;;12.05;5.75;;;;;;;;;;5111501;28;20081;-69
2021/04/25 05:56:23;;;;;;;13.63;5.95;;;;;;;;;;5096968;28;20096;-69
2021/04/25 05:58:49;;;;;;;13.13;6.10;;;;;;;;;;5112909;28;20047;-69
2021/04/25 06:01:15;;;;;;;9.90;6.10;;;;;;;;;;5112816;28;20051;-69
2021/04/25 06:03:41;;;;;;;16.58;8.77;;;;;;;;;;5113022;28;20399;-69
2021/04/25 06:06:07;;;;;;;13.68;7.72;;;;;;;;;;5112856;28;20043;-69
2021/04/25 06:08:33;;;;;;;21.27;8.35;;;;;;;;;;5112626;28;20523;-69
2021/04/25 06:10:59;;;;;;;11.35;7.30;;;;;;;;;;5112138;28;20039;-69
2021/04/25 06:13:26;;;;;;;9.75;7.20;;;;;;;;;;5108986;28;20164;-69
2021/04/25 06:15:52;;;;;;;14.95;8.98;;;;;;;;;;5112530;28;20451;-69
2021/04/25 06:18:18;;;;;;;14.07;8.20;;;;;;;;;;5112244;28;20055;-69
2021/04/25 06:20:44;;;;;;;15.32;8.93;;;;;;;;;;5132604;27;20122;-69
2021/04/25 06:23:10;;;;;;;16.80;9.25;;;;;;;;;;5116190;28;20547;-69
2021/04/25 06:25:36;;;;;;;16.77;10.25;;;;;;;;;;5112314;28;20439;-69
2021/04/25 06:28:02;;;;;;;16.05;10.02;;;;;;;;;;5107975;28;20071;-69
2021/04/25 06:30:30;;;;;;;18.67;10.23;;;;;;;;;;5111190;28;20052;-69
2021/04/25 06:32:56;;;;;;;23.75;12.40;;;;;;;;;;5111853;28;20442;-69
2021/04/25 06:35:22;;;;;;;16.67;11.85;;;;;;;;;;5112452;28;20048;-69
2021/04/25 06:37:48;;;;;;;18.70;12.60;;;;;;;;;;5114861;28;20484;-70
2021/04/25 06:40:15;;;;;;;16.67;11.15;;;;;;;;;;5112445;28;20369;-70
2021/04/25 06:42:41;;;;;;;17.45;11.55;;;;;;;;;;5115407;28;20456;-69
2021/04/25 06:45:10;;;;;;;23.77;13.30;;;;;;;;;;5112475;28;20051;-69
2021/04/25 06:47:36;;;;;;;23.98;14.00;;;;;;;;;;5115648;28;20044;-70
2021/04/25 06:50:04;;;;;;;20.60;13.00;;;;;;;;;;5117964;27;20043;-70
2021/04/25 06:52:30;;;;;;;21.27;14.13;;;;;;;;;;5113505;28;20467;-70
2021/04/25 06:54:55;;;;;;;22.45;15.45;;;;;;;;;;5119750;27;20055;-69
2021/04/25 06:57:21;;;;;;;18.00;14.05;;;;;;;;;;5107177;27;20481;-70
2021/04/25 06:59:47;;;;;;;20.10;14.75;;;;;;;;;;5111303;28;20070;-70
2021/04/25 07:02:13;;;;;;;20.48;14.63;;;;;;;;;;5111230;28;20105;-70
2021/04/25 07:04:40;;;;;;;23.92;14.63;;;;;;;;;;5114926;28;20058;-70
2021/04/25 07:07:06;;;;;;;20.98;12.82;;;;;;;;;;5111301;28;20392;-70
2021/04/25 07:09:32;;;;;;;19.20;14.18;;;;;;;;;;5113416;28;20593;-70
2021/04/25 07:11:58;;;;;;;18.92;14.27;;;;;;;;;;5115706;28;20051;-70
2021/04/25 07:14:24;;;;;;;18.50;13.43;;;;;;;;;;5116119;27;20170;-70
2021/04/25 07:16:50;;;;;;;28.50;15.00;;;;;;;;;;5115429;28;20159;-70
2021/04/25 07:19:16;;;;;;;19.98;13.82;;;;;;;;;;5112451;28;20047;-70
2021/04/25 07:21:43;;;;;;;20.33;13.82;;;;;;;;;;5115084;27;20044;-70
2021/04/25 07:24:09;;;;;;;21.05;14.50;;;;;;;;;;5113758;27;20047;-70
2021/04/25 07:26:36;;;;;;;18.02;13.77;;;;;;;;;;5116478;27;20062;-71
2021/04/25 07:29:02;;;;;;;23.05;14.65;;;;;;;;;;5115040;28;20046;-70
2021/04/25 07:31:28;;;;;;;19.85;14.40;;;;;;;;;;5116291;27;20427;-70
2021/04/25 07:33:54;;;;;;;23.92;15.60;;;;;;;;;;5115092;28;20077;-68
2021/04/25 07:36:20;;;;;;;18.05;13.55;;;;;;;;;;5114291;28;21407;-68
2021/04/25 07:38:47;;;;;;;19.30;14.38;;;;;;;;;;5112511;28;20058;-68
2021/04/25 07:41:14;;;;;;;20.02;14.75;;;;;;;;;;5114224;28;20089;-68
2021/04/25 07:43:40;;;;;;;18.90;13.88;;;;;;;;;;5113615;27;20055;-68
2021/04/25 07:46:06;;;;;;;23.33;15.27;;;;;;;;;;5114166;28;20063;-68
2021/04/25 07:48:32;;;;;;;19.00;13.07;;;;;;;;;;5113667;28;20043;-67
2021/04/25 07:50:58;;;;;;;17.25;13.30;;;;;;;;;;5114710;28;20046;-69
2021/04/25 07:53:24;;;;;;;17.80;13.20;;;;;;;;;;5115216;28;20040;-69
2021/04/25 07:55:51;;;;;;;21.55;13.75;;;;;;;;;;5114762;28;20895;-69
2021/04/25 07:58:17;;;;;;;16.67;12.52;;;;;;;;;;5115271;27;20043;-69
2021/04/25 08:00:43;;;;;;;22.05;13.98;;;;;;;;;;5116948;27;20396;-69
2021/04/25 08:03:09;;;;;;;18.70;12.52;;;;;;;;;;5116705;27;20487;-69
2021/04/25 08:05:35;;;;;;;24.95;14.45;;;;;;;;;;5114737;28;20048;-69
2021/04/25 08:08:01;;;;;;;17.00;12.90;;;;;;;;;;5114722;28;20051;-68
2021/04/25 08:10:27;;;;;;;20.23;14.60;;;;;;;;;;5114623;28;20073;-68
2021/04/25 08:12:54;;;;;;;17.92;13.48;;;;;;;;;;5114462;28;20055;-68
2021/04/25 08:15:22;;;;;;;22.55;13.57;;;;;;;;;;5114823;28;20487;-69
2021/04/25 08:17:48;;;;;;;18.85;13.43;;;;;;;;;;5114304;28;20047;-68
2021/04/25 08:20:15;;;;;;;18.08;12.32;;;;;;;;;;5120170;27;20089;-69
2021/04/25 08:22:41;;;;;;;18.35;12.38;;;;;;;;;;5117846;27;20050;-69
2021/04/25 08:25:08;;;;;;;17.08;12.07;;;;;;;;;;5114389;28;20063;-69
2021/04/25 08:27:34;;;;;;;19.35;13.73;;;;;;;;;;5113401;28;20508;-69
2021/04/25 08:30:01;;;;;;;18.80;11.75;;;;;;;;;;5119260;27;20043;-69
2021/04/25 08:32:27;;;;;;;18.50;12.45;;;;;;;;;;5114296;28;20051;-69
2021/04/25 08:34:53;;;;;;;17.58;12.75;;;;;;;;;;5114372;28;20467;-69
2021/04/25 08:37:19;;;;;;;19.60;12.00;;;;;;;;;;5114284;28;20048;-69
2021/04/25 08:39:45;;;;;;;17.77;12.30;;;;;;;;;;5113920;27;20126;-69
2021/04/25 08:42:12;;;;;;;16.85;12.07;;;;;;;;;;5118246;27;20131;-69
2021/04/25 08:44:40;;;;;;;17.85;11.55;;;;;;;;;;5114040;28;20039;-69
2021/04/25 08:47:07;;;;;;;17.48;11.25;;;;;;;;;;5114024;28;20051;-69
2021/04/25 08:49:34;;;;;;;20.42;12.05;;;;;;;;;;5113995;28;20071;-69
2021/04/25 08:52:00;;;;;;;16.33;11.95;;;;;;;;;;5117347;27;20048;-69
2021/04/25 08:54:27;;;;;;;15.82;10.98;;;;;;;;;;5123626;27;20079;-69
2021/04/25 08:56:55;;;;;;;14.98;11.23;;;;;;;;;;5113870;28;20047;-69
2021/04/25 08:59:21;;;;;;;20.80;12.73;;;;;;;;;;5113088;28;20439;-69
2021/04/25 09:01:47;;;;;;;16.90;10.65;;;;;;;;;;5113949;28;20039;-69
2021/04/25 09:04:14;;;;;;;16.20;11.00;;;;;;;;;;5114040;28;20055;-69
2021/04/25 09:06:57;;;;;;;15.65;12.55;;;;;;;;;;5120113;27;20384;-69
2021/04/25 09:09:23;;;;;;;15.88;11.32;;;;;;;;;;5133603;27;20042;-69
2021/04/25 09:11:50;;;;;;;18.63;12.15;;;;;;;;;;5124462;27;20043;-68
2021/04/25 09:14:18;;;;;;;16.75;11.88;;;;;;;;;;5119569;27;20085;-69
2021/04/25 09:16:45;;;;;;;15.30;11.25;;;;;;;;;;5128999;27;20043;-70
2021/04/25 09:19:12;;;;;;;15.40;11.35;;;;;;;;;;5128501;27;20492;-70
2021/04/25 09:21:53;;;;;;;13.98;11.10;;;;;;;;;;5119976;27;20041;-70
2021/04/25 09:24:21;;;;;;;17.67;10.07;;;;;;;;;;5117053;27;20046;-69
2021/04/25 09:26:50;;;;;;;16.13;11.23;;;;;;;;;;5119714;27;20058;-70
2021/04/25 09:29:16;;;;;;;16.50;11.30;;;;;;;;;;5116403;27;20051;-70
2021/04/25 09:31:43;;;;;;;17.50;11.40;;;;;;;;;;5120264;27;20039;-67
2021/04/25 09:34:09;;;;;;;17.88;10.32;;;;;;;;;;5117208;27;20074;-69
2021/04/25 09:36:35;;;;;;;16.45;10.35;;;;;;;;;;5122135;27;20488;-67
2021/04/25 09:39:11;;;;;;;14.00;10.65;;;;;;;;;;5116541;27;20062;-67
2021/04/25 09:41:37;;;;;;;15.63;10.80;;;;;;;;;;5111831;28;20454;-67
2021/04/25 09:44:04;;;;;;;14.38;10.20;;;;;;;;;;5113378;28;20048;-67
2021/04/25 09:46:52;;;;;;;14.70;10.95;;;;;;;;;;5112824;28;20055;-66
2021/04/25 09:49:39;;;;;;;17.00;11.13;;;;;;;;;;5125350;27;20050;-66
2021/04/25 09:52:05;;;;;;;14.65;10.45;;;;;;;;;;5112566;28;20400;-65
2021/04/25 09:54:32;;;;;;;13.13;9.88;;;;;;;;;;5124995;27;20047;-65
2021/04/25 09:56:59;;;;;;;14.23;11.23;;;;;;;;;;5125459;27;20047;-66
2021/04/25 09:59:25;;;;;;;12.48;9.48;;;;;;;;;;5113230;28;20046;-66
2021/04/25 10:02:03;;;;;;;13.48;9.32;;;;;;;;;;5124124;27;20095;-65
2021/04/25 10:04:31;;;;;;;15.95;9.57;;;;;;;;;;5133850;27;20051;-66
2021/04/25 10:06:58;;;;;;;13.57;9.48;;;;;;;;;;5133295;27;20176;-66
2021/04/25 10:09:25;;;;;;;13.55;9.73;;;;;;;;;;5132980;27;20472;-66
2021/04/25 10:11:53;;;;;;;13.95;9.98;;;;;;;;;;5119156;27;20043;-67
2021/04/25 10:14:20;;;;;;;12.55;9.48;;;;;;;;;;5112184;28;20046;-66
2021/04/25 10:16:46;;;;;;;13.55;8.63;;;;;;;;;;5112039;28;20081;-66
2021/04/25 10:19:12;;;;;;;12.63;9.70;;;;;;;;;;5113613;28;20043;-66
2021/04/25 10:21:40;;;;;;;11.93;9.48;;;;;;;;;;5112570;27;20514;-66
2021/04/25 10:24:07;;;;;;;16.17;10.15;;;;;;;;;;5111450;28;20392;-66
2021/04/25 10:26:37;;;;;;;10.93;9.13;;;;;;;;;;5112220;28;20050;-66
2021/04/25 10:29:05;;;;;;;12.77;9.13;;;;;;;;;;5112160;28;20051;-66
2021/04/25 10:31:35;;;;;;;14.43;9.65;;;;;;;;;;5112370;28;20385;-66
2021/04/25 10:34:04;;;;;;;11.35;9.18;;;;;;;;;;5112042;28;20055;-66
2021/04/25 10:36:58;;;;;;;13.40;9.65;;;;;;;;;;5112032;28;20098;-67
2021/04/25 10:39:46;;;;;;;10.82;9.20;;;;;;;;;;5108574;28;20079;-66
2021/04/25 10:42:33;;;;;;;15.82;10.40;;;;;;;;;;5113642;28;20534;-66
2021/04/25 10:45:17;;;;;;;12.75;9.25;;;;;;;;;;5113113;28;20126;-66
2021/04/25 10:47:45;;;;;;;10.82;8.77;;;;;;;;;;5112424;28;20105;-66
2021/04/25 10:50:42;;;;;;;10.70;8.27;;;;;;;;;;5113240;28;20043;-66
2021/04/25 10:53:29;;;;;;;15.95;8.73;;;;;;;;;;5109573;28;20139;-66
2021/04/25 10:56:23;;;;;;;11.02;7.68;;;;;;;;;;5110698;28;20051;-66
2021/04/25 10:59:24;;;;;;;16.67;8.73;;;;;;;;;;5111223;28;20383;-66
2021/04/25 11:01:51;;;;;;;12.13;7.97;;;;;;;;;;5101775;28;20531;-66
2021/04/25 11:04:51;;;;;;;10.65;7.63;;;;;;;;;;5116099;28;20051;-66
2021/04/25 11:07:39;;;;;;;14.95;7.70;;;;;;;;;;5106024;28;20407;-66
2021/04/25 11:10:06;;;;;;;11.00;7.15;;;;;;;;;;5111988;28;20048;-68
2021/04/25 11:12:40;;;;;;;9.30;7.30;;;;;;;;;;5112468;28;20054;-66
2021/04/25 11:15:08;;;;;;;11.82;8.13;;;;;;;;;;5123982;28;20039;-67
2021/04/25 11:17:35;;;;;;;10.00;7.22;;;;;;;;;;5132522;28;20043;-67
2021/04/25 11:20:29;;;;;;;11.32;7.38;;;;;;;;;;5132701;28;20504;-67
2021/04/25 11:22:55;;;;;;;12.30;7.95;;;;;;;;;;5104029;27;20055;-67
2021/04/25 11:25:29;;;;;;;9.50;7.00;;;;;;;;;;5120293;27;20039;-67
2021/04/25 11:27:55;;;;;;;8.73;6.93;;;;;;;;;;5117682;27;20074;-67
2021/04/25 11:30:35;;;;;;;9.02;6.97;;;;;;;;;;5115495;27;20046;-67
2021/04/25 11:33:34;;;;;;;10.02;7.40;;;;;;;;;;5116039;27;20047;-67
2021/04/25 11:36:34;;;;;;;11.85;6.95;;;;;;;;;;5117642;27;20055;-67
2021/04/25 11:39:01;;;;;;;11.98;6.95;;;;;;;;;;5113643;28;20054;-67
2021/04/25 11:41:27;;;;;;;9.68;7.07;;;;;;;;;;5115851;27;20495;-67
2021/04/25 11:43:53;;;;;;;11.48;7.43;;;;;;;;;;5113061;28;20074;-67
2021/04/25 11:46:30;;;;;;;10.43;7.60;;;;;;;;;;5114789;28;20047;-67
2021/04/25 11:48:57;;;;;;;8.50;6.75;;;;;;;;;;5116855;27;20055;-67
2021/04/25 11:51:24;;;;;;;12.88;8.68;;;;;;;;;;5116552;27;20040;-67
2021/04/25 11:53:51;;;;;;;8.02;6.28;;;;;;;;;;5115362;28;20451;-67
2021/04/25 11:56:24;;;;;;;9.15;6.57;;;;;;;;;;5126280;27;20437;-67
2021/04/25 11:58:50;;;;;;;10.18;6.15;;;;;;;;;;5114897;28;20059;-70
2021/04/25 12:01:22;;;;;;;11.10;6.75;;;;;;;;;;5130705;27;20081;-66
2021/04/25 12:03:48;;;;;;;7.40;6.30;;;;;;;;;;5136003;27;20043;-66
2021/04/25 12:06:15;;;;;;;11.00;7.30;;;;;;;;;;5138330;27;20460;-66
2021/04/25 12:08:50;;;;;;;9.40;6.88;;;;;;;;;;5135930;27;20099;-67
2021/04/25 12:11:21;;;;;;;9.60;7.03;;;;;;;;;;5135262;27;20043;-66
2021/04/25 12:13:47;;;;;;;7.68;5.93;;;;;;;;;;5135932;27;20047;-67
2021/04/25 12:16:18;;;;;;;8.13;6.90;;;;;;;;;;5146462;27;20681;-67
2021/04/25 12:18:44;;;;;;;9.88;6.40;;;;;;;;;;5156318;27;20055;-67
2021/04/25 12:21:18;;;;;;;8.13;6.70;;;;;;;;;;5155961;27;20047;-67
2021/04/25 12:23:48;;;;;;;9.05;6.20;;;;;;;;;;5155664;27;20458;-67
2021/04/25 12:26:15;;;;;;;10.50;5.78;;;;;;;;;;5134268;27;20365;-67
2021/04/25 12:28:42;;;;;;;8.05;5.45;;;;;;;;;;5135373;27;20054;-67
2021/04/25 12:31:09;;;;;;;8.75;6.63;;;;;;;;;;5134841;27;20051;-67
2021/04/25 12:33:40;;;;;;;7.55;5.40;;;;;;;;;;5134724;27;20047;-67
2021/04/25 12:36:07;;;;;;;8.30;6.13;;;;;;;;;;5143033;27;20050;-67
2021/04/25 12:38:36;;;;;;;8.90;5.93;;;;;;;;;;5135204;27;20046;-67
2021/04/25 12:41:04;;;;;;;8.88;5.93;;;;;;;;;;5134985;27;20039;-67
2021/04/25 12:43:32;;;;;;;6.22;5.43;;;;;;;;;;5131379;27;20044;-67
2021/04/25 12:45:59;;;;;;;7.55;5.43;;;;;;;;;;5127695;27;20054;-67
2021/04/25 12:48:34;;;;;;;8.07;5.90;;;;;;;;;;5124392;27;20055;-67
2021/04/25 12:51:11;;;;;;;6.77;5.13;;;;;;;;;;5133482;27;20126;-67
2021/04/25 12:53:43;;;;;;;8.45;4.82;;;;;;;;;;5132989;27;20281;-67
2021/04/25 12:56:19;;;;;;;6.15;4.30;;;;;;;;;;5131959;27;20491;-67
2021/04/25 12:59:09;;;;;;;5.32;4.15;;;;;;;;;;5132227;27;20103;-67
2021/04/25 13:01:38;;;;;;;7.10;4.50;;;;;;;;;;5134610;27;20043;-67
2021/04/25 13:04:32;;;;;;;6.22;4.07;;;;;;;;;;5132815;27;20479;-68
2021/04/25 13:07:38;;;;;;;6.07;4.18;;;;;;;;;;5132378;27;20099;-67
2021/04/25 13:10:19;;;;;;;10.00;4.23;;;;;;;;;;5132640;27;20050;-67
2021/04/25 13:12:47;;;;;;;9.68;4.80;;;;;;;;;;5132993;27;20292;-67
2021/04/25 13:15:17;;;;;;;5.00;4.07;;;;;;;;;;5134491;27;20045;-68
2021/04/25 13:17:44;;;;;;;5.38;4.15;;;;;;;;;;5123352;27;20096;-67
2021/04/25 13:20:34;;;;;;;5.47;3.53;;;;;;;;;;5138551;27;20050;-67
2021/04/25 13:23:02;;;;;;;4.50;3.25;;;;;;;;;;5131213;27;20038;-67
2021/04/25 13:25:32;;;;;;;4.93;3.22;;;;;;;;;;5150909;27;20064;-68
2021/04/25 13:27:59;;;;;;;7.15;3.90;;;;;;;;;;5142637;27;20092;-68
2021/04/25 13:30:31;;;;;;;4.78;2.90;;;;;;;;;;5132697;27;20050;-68
2021/04/25 13:32:57;;;;;;;4.15;2.90;;;;;;;;;;5139835;27;20154;-68
2021/04/25 13:35:23;;;;;;;5.88;3.20;;;;;;;;;;5136574;27;20548;-67
2021/04/25 13:37:50;;;;;;;4.55;3.08;;;;;;;;;;5138120;27;20043;-68
2021/04/25 13:40:16;;;;;;;6.20;3.40;;;;;;;;;;5144104;27;20107;-67
2021/04/25 13:42:43;;;;;;;5.03;3.05;;;;;;;;;;5138468;27;20479;-68
2021/04/25 13:45:10;;;;;;;4.38;3.10;;;;;;;;;;5129670;27;20091;-67
2021/04/25 13:47:36;;;;;;;6.05;2.92;;;;;;;;;;5131679;27;20100;-68
2021/04/25 13:50:04;;;;;;;4.10;2.72;;;;;;;;;;5131837;27;20051;-67
2021/04/25 13:52:30;;;;;;;4.78;3.08;;;;;;;;;;5137985;27;20039;-67
2021/04/25 13:54:57;;;;;;;5.22;3.40;;;;;;;;;;5142599;27;20479;-67
2021/04/25 13:57:23;;;;;;;5.80;3.72;;;;;;;;;;5144730;27;20039;-68
2021/04/25 13:59:49;;;;;;;5.20;3.22;;;;;;;;;;5141992;27;20480;-68
2021/04/25 14:02:15;;;;;;;5.18;3.40;;;;;;;;;;5139238;27;20055;-68
2021/04/25 14:04:41;;;;;;;6.63;3.40;;;;;;;;;;5112926;28;20066;-68
2021/04/25 14:07:07;;;;;;;4.45;2.78;;;;;;;;;;5134679;27;20055;-68
2021/04/25 14:09:33;;;;;;;6.47;3.80;;;;;;;;;;5154087;27;20046;-68
2021/04/25 14:12:00;;;;;;;5.10;2.80;;;;;;;;;;5154096;27;20043;-68
2021/04/25 14:14:26;;;;;;;5.05;2.50;;;;;;;;;;5153945;27;20054;-68
2021/04/25 14:16:53;;;;;;;4.25;2.58;;;;;;;;;;5154351;27;20065;-68
2021/04/25 14:19:19;;;;;;;5.18;2.63;;;;;;;;;;5138618;27;20058;-68
2021/04/25 14:21:45;;;;;;;6.40;2.67;;;;;;;;;;5126358;27;20039;-68
2021/04/25 14:24:12;;;;;;;5.40;2.88;;;;;;;;;;5119726;27;20054;-68
2021/04/25 14:26:38;;;;;;;4.75;2.30;;;;;;;;;;5153603;27;20047;-68
2021/04/25 14:29:04;;;;;;;4.97;2.58;;;;;;;;;;5146817;27;20053;-68
2021/04/25 14:31:30;;;;;;;4.82;2.50;;;;;;;;;;5133228;28;20047;-68
2021/04/25 14:33:57;;;;;;;4.75;2.45;;;;;;;;;;5133299;28;20403;-68
2021/04/25 14:36:23;;;;;;;4.97;2.47;;;;;;;;;;5128400;28;20506;-68
2021/04/25 14:38:49;;;;;;;3.72;2.33;;;;;;;;;;5144164;27;20055;-67